Time;durP1;ratioP1;P1;durP2;ratioP2;P2;SDS_P1;SDS_P2;PMS_P1;PMS_P2;Temp;Humidity;BMP_temperature;BMP_pressure;BME280_temperature;BME280_humidity;BME280_pressure;Samples;Min_cycle;Max_cycle;Signal;HPM_P1;HPM_P2
2022/10/11 00:00:43;;;;;;;19.13;12.90;;;;;;;10.21;79.36;101505.31;5018254;28;20748;-73
2022/10/11 00:03:09;;;;;;;21.25;11.32;;;;;;;10.16;79.87;101507.88;5013594;28;20096;-73
2022/10/11 00:05:35;;;;;;;18.60;12.63;;;;;;;10.64;77.96;101527.16;5000722;28;20552;-73
2022/10/11 00:08:00;;;;;;;22.63;11.32;;;;;;;10.26;79.97;101514.19;5009313;28;20042;-73
2022/10/11 00:10:26;;;;;;;18.40;11.18;;;;;;;9.65;80.04;101427.34;5001703;28;20513;-72
2022/10/11 00:12:52;;;;;;;17.00;11.32;;;;;;;10.31;80.12;101515.19;5011951;28;20045;-72
2022/10/11 00:15:20;;;;;;;26.38;12.18;;;;;;;9.51;79.87;101390.38;5003708;28;20045;-73
2022/10/11 00:17:46;;;;;;;21.60;9.98;;;;;;;9.34;79.93;101362.94;5016091;28;20030;-72
2022/10/11 00:20:12;;;;;;;29.88;9.40;;;;;;;9.33;80.19;101384.78;5005865;28;20069;-72
2022/10/11 00:22:39;;;;;;;17.58;10.45;;;;;;;10.12;80.10;101517.41;5008722;28;20037;-73
2022/10/11 00:25:06;;;;;;;17.20;9.57;;;;;;;9.23;80.21;101379.34;4988474;28;20072;-73
2022/10/11 00:27:33;;;;;;;18.48;10.88;;;;;;;10.02;79.93;101519.81;5006176;28;20466;-73
2022/10/11 00:29:58;;;;;;;15.98;9.07;;;;;;;9.87;79.50;101489.81;5026009;28;20104;-72
2022/10/11 00:32:24;;;;;;;15.02;9.40;;;;;;;9.99;78.93;101515.41;5009101;28;20137;-74
2022/10/11 00:34:50;;;;;;;13.88;8.25;;;;;;;9.87;78.70;101492.44;5008331;28;20042;-73
2022/10/11 00:37:15;;;;;;;13.32;9.07;;;;;;;9.87;78.05;101481.06;5008462;28;20486;-72
2022/10/11 00:39:41;;;;;;;21.02;9.52;;;;;;;10.13;77.29;101515.66;4985887;28;20081;-74
2022/10/11 00:42:12;;;;;;;16.25;9.55;;;;;;;10.04;77.58;101505.00;4986807;28;20034;-72
2022/10/11 00:44:39;;;;;;;18.88;8.35;;;;;;;9.60;76.44;101422.00;4986074;28;20089;-72
2022/10/11 00:47:13;;;;;;;15.10;8.82;;;;;;;9.72;76.60;101487.78;4996080;28;20061;-74
2022/10/11 00:49:54;;;;;;;19.63;8.45;;;;;;;9.85;76.72;101496.75;4991890;28;20081;-73
2022/10/11 00:52:30;;;;;;;25.88;9.07;;;;;;;8.27;76.50;101236.78;5000208;28;20493;-74
2022/10/11 00:55:05;;;;;;;29.17;9.23;;;;;;;9.70;76.28;101465.00;4995879;28;20037;-75
2022/10/11 00:57:35;;;;;;;11.73;7.32;;;;;;;8.87;77.07;101350.63;4997257;28;20030;-75
2022/10/11 01:00:05;;;;;;;16.60;9.50;;;;;;;9.52;76.95;101469.00;4991970;28;20117;-74
2022/10/11 01:02:31;;;;;;;19.98;8.23;;;;;;;8.82;76.61;101334.81;5006668;28;20607;-73
2022/10/11 01:04:56;;;;;;;14.25;7.95;;;;;;;9.77;77.10;101493.13;5005765;28;20073;-73
2022/10/11 01:07:26;;;;;;;17.55;9.38;;;;;;;9.77;76.05;101455.53;4988135;28;20046;-73
2022/10/11 01:09:52;;;;;;;19.80;8.77;;;;;;;9.73;76.48;101472.94;4992120;28;20116;-73
2022/10/11 01:12:22;;;;;;;20.60;9.30;;;;;;;9.60;77.47;101486.63;4989726;28;20053;-74
2022/10/11 01:15:06;;;;;;;21.83;8.15;;;;;;;9.71;76.85;101467.63;5002798;28;20041;-72
2022/10/11 01:17:40;;;;;;;18.70;9.20;;;;;;;9.53;77.38;101454.19;5003469;28;20108;-75
2022/10/11 01:20:23;;;;;;;16.77;9.07;;;;;;;9.52;77.85;101450.66;4994010;28;20084;-74
2022/10/11 01:23:32;;;;;;;15.70;9.55;;;;;;;9.53;77.68;101454.19;4986518;28;20520;-74
2022/10/11 01:26:23;;;;;;;13.65;8.63;;;;;;;9.73;76.87;101462.44;4995819;28;20430;-75
2022/10/11 01:28:51;;;;;;;12.75;8.98;;;;;;;9.51;77.31;101455.88;4995024;28;20041;-73
2022/10/11 01:31:25;;;;;;;26.60;9.23;;;;;;;8.72;77.62;101308.44;4997389;28;20050;-74
2022/10/11 01:34:02;;;;;;;13.88;8.45;;;;;;;8.66;77.62;101307.44;4998166;28;20042;-73
2022/10/11 01:36:41;;;;;;;28.02;9.35;;;;;;;9.48;76.89;101424.34;4996048;28;20108;-73
2022/10/11 01:39:22;;;;;;;18.13;8.32;;;;;;;8.84;77.50;101340.09;4984539;28;20332;-72
2022/10/11 01:41:52;;;;;;;24.92;9.13;;;;;;;8.56;77.40;101318.53;4999761;28;20203;-72
2022/10/11 01:44:19;;;;;;;18.42;8.85;;;;;;;9.39;78.10;101458.22;5011501;28;20184;-72
2022/10/11 01:46:44;;;;;;;14.60;8.40;;;;;;;8.59;78.25;101338.63;5011517;28;20038;-74
2022/10/11 01:49:10;;;;;;;22.90;7.85;;;;;;;9.26;76.84;101430.88;5016163;28;20044;-72
2022/10/11 01:51:42;;;;;;;18.13;8.65;;;;;;;8.83;75.34;101317.41;5002968;28;20033;-72
2022/10/11 01:54:45;;;;;;;17.92;9.90;;;;;;;9.49;75.75;101450.59;5008463;28;20037;-74
2022/10/11 01:57:34;;;;;;;20.58;10.05;;;;;;;9.34;76.82;101455.53;5003888;28;20057;-71
2022/10/11 02:00:16;;;;;;;19.33;9.40;;;;;;;9.23;76.72;101452.66;5007374;28;20033;-73
2022/10/11 02:03:10;;;;;;;15.98;8.60;;;;;;;9.16;77.71;101449.88;5009359;28;20439;-72
2022/10/11 02:05:41;;;;;;;;;;;;;;;9.21;77.54;101453.47;5006081;28;20046;-72
2022/10/11 02:08:15;;;;;;;19.00;8.93;;;;;;;9.27;76.92;101477.16;4994820;28;19913;-72
2022/10/11 02:10:55;;;;;;;22.83;9.13;;;;;;;8.27;77.38;101315.22;4999689;28;20515;-72
2022/10/11 02:13:31;;;;;;;21.52;8.93;;;;;;;9.04;77.20;101455.72;5010617;28;20177;-73
2022/10/11 02:16:00;;;;;;;20.05;9.10;;;;;;;8.09;77.66;101312.16;5006761;28;20054;-74
2022/10/11 02:18:32;;;;;;;19.83;8.30;;;;;;;8.94;77.80;101459.84;5002809;28;20027;-73
2022/10/11 02:21:00;;;;;;;14.48;8.15;;;;;;;8.23;77.52;101321.22;5009621;28;20087;-74
2022/10/11 02:23:33;;;;;;;12.50;7.35;;;;;;;8.66;78.15;101453.06;5006019;28;20042;-72
2022/10/11 02:26:03;;;;;;;12.32;7.45;;;;;;;8.17;77.84;101347.19;5006938;28;20069;-72
2022/10/11 02:28:32;;;;;;;15.18;7.18;;;;;;;8.69;77.41;101428.72;5006379;28;20145;-73
2022/10/11 02:31:00;;;;;;;16.05;7.88;;;;;;;8.12;77.58;101335.75;4988791;28;20105;-73
2022/10/11 02:33:32;;;;;;;20.63;8.35;;;;;;;8.95;76.91;101443.28;5000549;28;20037;-72
2022/10/11 02:36:10;;;;;;;20.63;7.75;;;;;;;8.88;76.87;101436.16;5004760;28;20472;-72
2022/10/11 02:38:58;;;;;;;15.38;9.00;;;;;;;9.01;77.29;101445.16;5005155;28;20049;-72
2022/10/11 02:41:32;;;;;;;14.77;8.18;;;;;;;8.84;78.05;101444.78;4997402;28;20053;-73
2022/10/11 02:44:26;;;;;;;15.98;7.63;;;;;;;8.73;78.58;101434.03;5016882;28;20046;-74
2022/10/11 02:46:52;;;;;;;12.60;7.97;;;;;;;8.87;78.70;101439.59;5011254;28;20042;-74
2022/10/11 02:49:18;;;;;;;15.98;8.20;;;;;;;8.20;78.46;101313.31;5006938;28;20053;-74
2022/10/11 02:51:44;;;;;;;22.73;7.22;;;;;;;8.95;78.20;101416.25;5011916;28;20512;-74
2022/10/11 02:54:09;;;;;;;14.40;8.50;;;;;;;8.48;77.46;101314.00;5006447;28;20038;-72
2022/10/11 02:56:35;;;;;;;18.30;8.40;;;;;;;9.13;77.35;101427.13;5018055;28;20045;-74
2022/10/11 02:59:00;;;;;;;11.98;7.40;;;;;;;8.14;78.21;101292.22;4997946;28;20553;-73
2022/10/11 03:01:26;;;;;;;17.88;8.13;;;;;;;8.32;78.08;101310.09;4996916;28;20470;-74
2022/10/11 03:03:51;;;;;;;16.35;7.72;;;;;;;8.59;77.92;101351.72;5006649;28;20536;-73
2022/10/11 03:06:17;;;;;;;17.60;7.18;;;;;;;8.98;78.35;101432.00;5013512;28;20064;-74
2022/10/11 03:08:43;;;;;;;14.60;6.78;;;;;;;7.72;79.50;101270.28;5006444;28;20034;-73
2022/10/11 03:11:08;;;;;;;10.35;7.38;;;;;;;7.82;78.85;101285.38;4978044;28;20133;-73
2022/10/11 03:13:34;;;;;;;23.88;8.40;;;;;;;7.72;79.73;101290.31;5003958;28;20046;-75
2022/10/11 03:15:59;;;;;;;13.45;9.65;;;;;;;8.54;79.59;101409.16;4988495;28;20038;-72
2022/10/11 03:18:25;;;;;;;13.00;7.50;;;;;;;8.22;79.71;101358.69;5006113;28;20061;-72
2022/10/11 03:20:50;;;;;;;14.75;8.23;;;;;;;7.74;80.85;101293.84;5003048;28;20033;-73
2022/10/11 03:23:16;;;;;;;18.58;7.53;;;;;;;8.57;80.38;101416.19;4988442;28;20433;-74
2022/10/11 03:25:43;;;;;;;13.32;7.57;;;;;;;8.44;81.09;101425.50;5016275;28;20037;-73
2022/10/11 03:28:08;;;;;;;13.77;7.63;;;;;;;8.33;81.20;101425.16;5011155;28;20189;-73
2022/10/11 03:30:34;;;;;;;15.65;9.10;;;;;;;8.20;82.00;101420.50;5009003;28;20761;-73
2022/10/11 03:33:00;;;;;;;13.70;6.75;;;;;;;7.56;81.50;101270.75;4993594;28;20413;-74
2022/10/11 03:35:25;;;;;;;10.25;7.50;;;;;;;7.45;80.95;101248.72;5008114;28;20162;-74
2022/10/11 03:37:51;;;;;;;15.27;7.60;;;;;;;8.20;81.98;101416.16;4996110;28;20600;-74
2022/10/11 03:40:16;;;;;;;19.70;7.95;;;;;;;7.87;82.29;101369.09;4985096;28;20047;-73
2022/10/11 03:42:42;;;;;;;17.95;7.88;;;;;;;7.93;82.72;101405.84;4984037;28;20117;-73
2022/10/11 03:45:08;;;;;;;18.33;7.40;;;;;;;7.31;82.32;101272.72;5001144;28;20109;-73
2022/10/11 03:47:35;;;;;;;14.90;8.52;;;;;;;7.33;83.11;101304.97;4990391;28;20038;-73
2022/10/11 03:50:01;;;;;;;15.45;7.93;;;;;;;7.28;82.84;101280.47;4991126;28;20556;-73
2022/10/11 03:52:27;;;;;;;9.50;4.70;;;;;;;7.48;81.73;101288.84;4999841;28;20104;-73
2022/10/11 03:54:52;;;;;;;16.58;7.70;;;;;;;7.27;82.16;101285.66;4989021;28;20039;-72
2022/10/11 03:57:18;;;;;;;7.22;4.45;;;;;;;8.06;82.79;101422.75;4968510;28;20126;-73
2022/10/11 03:59:44;;;;;;;10.73;4.88;;;;;;;7.72;82.63;101360.84;4990197;28;20040;-73
2022/10/11 04:02:09;;;;;;;20.98;7.47;;;;;;;8.01;83.37;101417.41;4989349;28;20482;-73
2022/10/11 04:04:35;;;;;;;13.35;7.93;;;;;;;8.08;83.22;101418.44;4989961;28;20427;-73
2022/10/11 04:07:00;;;;;;;12.27;4.80;;;;;;;8.08;83.52;101413.22;4995133;28;20409;-74
2022/10/11 04:09:26;;;;;;;9.90;4.60;;;;;;;8.02;83.79;101432.22;4991096;28;20026;-74
2022/10/11 04:11:51;;;;;;;22.30;6.07;;;;;;;8.08;83.39;101420.16;4978049;28;20800;-72
2022/10/11 04:14:17;;;;;;;17.65;5.60;;;;;;;6.58;83.22;101155.88;4989306;28;20042;-73
2022/10/11 04:16:42;;;;;;;13.25;5.88;;;;;;;7.89;83.75;101385.72;4989825;28;20105;-75
2022/10/11 04:19:07;;;;;;;12.77;6.90;;;;;;;8.03;83.44;101397.41;4985080;28;20893;-72
2022/10/11 04:21:33;;;;;;;13.73;7.40;;;;;;;7.52;82.93;101264.56;4991590;28;20038;-73
2022/10/11 04:23:58;;;;;;;10.57;6.40;;;;;;;7.77;82.95;101304.38;4976108;28;20067;-73
2022/10/11 04:26:24;;;;;;;23.15;7.80;;;;;;;8.09;83.32;101401.03;4975996;28;20062;-73
2022/10/11 04:28:49;;;;;;;18.73;7.65;;;;;;;7.62;83.63;101333.59;4988100;28;20050;-73
2022/10/11 04:31:15;;;;;;;11.80;6.93;;;;;;;7.29;83.58;101250.91;4988774;28;20158;-73
2022/10/11 04:33:40;;;;;;;24.23;8.25;;;;;;;8.16;83.57;101410.78;4988362;28;20038;-74
2022/10/11 04:36:06;;;;;;;22.45;7.15;;;;;;;7.79;83.53;101355.81;4993816;28;20119;-72
2022/10/11 04:38:32;;;;;;;19.25;7.45;;;;;;;7.77;82.79;101288.69;5007995;28;20050;-73
2022/10/11 04:41:12;;;;;;;19.60;8.20;;;;;;;7.46;82.92;101276.59;4999329;28;20513;-72
2022/10/11 04:43:38;;;;;;;14.05;7.65;;;;;;;8.33;82.45;101372.00;4999992;28;20136;-72
2022/10/11 04:46:04;;;;;;;7.85;5.57;;;;;;;8.44;81.70;101387.13;5008034;28;20153;-73
2022/10/11 04:48:30;;;;;;;14.45;7.88;;;;;;;7.82;80.99;101256.63;5003570;28;20034;-73
2022/10/11 04:50:55;;;;;;;14.25;8.07;;;;;;;7.68;80.67;101276.31;4988293;28;20030;-72
2022/10/11 04:53:21;;;;;;;22.08;7.85;;;;;;;8.19;81.00;101384.72;5007204;28;20466;-72
2022/10/11 04:55:56;;;;;;;13.75;7.75;;;;;;;8.66;79.89;101404.25;5005826;28;20116;-72
2022/10/11 04:58:29;;;;;;;17.17;9.32;;;;;;;7.99;79.25;101246.59;5015355;28;20049;-74
2022/10/11 05:00:55;;;;;;;18.25;7.72;;;;;;;8.95;78.83;101396.19;5005190;28;20466;-73
2022/10/11 05:03:28;;;;;;;12.88;7.35;;;;;;;8.27;77.84;101264.66;5017616;28;20033;-74
2022/10/11 05:05:53;;;;;;;19.40;7.95;;;;;;;8.73;78.36;101384.31;5007736;28;20091;-73
2022/10/11 05:08:19;;;;;;;13.52;7.68;;;;;;;7.94;77.74;101261.28;5012100;28;20041;-73
2022/10/11 05:11:01;;;;;;;15.85;6.85;;;;;;;8.10;77.95;101244.25;5006220;28;20136;-72
2022/10/11 05:13:28;;;;;;;23.23;7.05;;;;;;;8.64;76.61;101287.34;5002351;28;20054;-72
2022/10/11 05:15:53;;;;;;;10.27;7.03;;;;;;;8.89;76.90;101372.47;5007396;28;20042;-74
2022/10/11 05:18:19;;;;;;;18.45;8.27;;;;;;;9.08;76.90;101397.31;4988581;28;20030;-73
2022/10/11 05:20:45;;;;;;;18.13;8.60;;;;;;;8.33;77.21;101268.28;5011760;28;20030;-72
2022/10/11 05:23:11;;;;;;;24.00;8.20;;;;;;;9.37;76.21;101391.84;4997416;28;20590;-73
2022/10/11 05:25:36;;;;;;;20.23;8.13;;;;;;;8.58;76.50;101251.44;4999144;28;20082;-72
2022/10/11 05:28:02;;;;;;;27.67;9.85;;;;;;;9.34;75.37;101371.72;4977159;28;20638;-73
2022/10/11 05:30:28;;;;;;;18.27;9.55;;;;;;;8.55;75.52;101289.75;4999136;28;20039;-74
2022/10/11 05:32:53;;;;;;;16.80;8.95;;;;;;;8.80;75.11;101292.06;5005273;28;20783;-74
2022/10/11 05:35:19;;;;;;;17.05;8.52;;;;;;;9.28;75.21;101403.00;4998634;28;20096;-72
2022/10/11 05:37:44;;;;;;;28.25;9.85;;;;;;;9.39;75.00;101397.97;4986276;28;20483;-73
2022/10/11 05:40:10;;;;;;;29.20;8.45;;;;;;;8.53;75.60;101260.94;4980693;28;20478;-73
2022/10/11 05:42:36;;;;;;;23.13;9.27;;;;;;;9.34;75.89;101400.53;4977615;28;20101;-74
2022/10/11 05:45:03;;;;;;;24.08;8.65;;;;;;;9.56;75.48;101398.34;4990548;28;21085;-76
2022/10/11 05:47:28;;;;;;;18.60;8.98;;;;;;;8.92;74.35;101253.88;4979829;28;20050;-75
2022/10/11 05:49:54;;;;;;;27.45;8.25;;;;;;;9.77;74.57;101396.13;4976336;28;20035;-74
2022/10/11 05:52:20;;;;;;;20.70;8.48;;;;;;;9.86;74.06;101361.34;4969767;28;20545;-75
2022/10/11 05:54:46;;;;;;;45.80;9.20;;;;;;;9.95;74.15;101398.22;4972257;28;20090;-77
2022/10/11 05:57:12;;;;;;;13.40;8.23;;;;;;;9.63;74.49;101367.03;4982746;28;20202;-76
2022/10/11 05:59:38;;;;;;;13.90;8.18;;;;;;;9.11;75.19;101255.13;4984686;28;20067;-76
2022/10/11 06:02:03;;;;;;;13.98;7.65;;;;;;;10.19;73.87;101387.28;4976588;28;20070;-77
2022/10/11 06:04:28;;;;;;;38.15;9.23;;;;;;;10.12;74.55;101388.91;4975946;28;20089;-77
2022/10/11 06:06:54;;;;;;;20.58;8.18;;;;;;;9.90;73.94;101313.34;4974118;28;20050;-74
2022/10/11 06:09:19;;;;;;;25.38;10.50;;;;;;;10.18;75.07;101396.00;4993513;28;20173;-78
2022/10/11 06:11:45;;;;;;;14.82;8.35;;;;;;;10.41;74.36;101398.16;4986732;28;20038;-76
2022/10/11 06:14:10;;;;;;;15.45;9.60;;;;;;;10.34;74.36;101384.94;4989858;28;20058;-77
2022/10/11 06:16:37;;;;;;;19.02;8.38;;;;;;;10.26;74.88;101378.66;4980724;28;20044;-75
2022/10/11 06:19:03;;;;;;;14.70;7.97;;;;;;;10.26;73.99;101326.19;4978707;28;20038;-77
2022/10/11 06:21:29;;;;;;;14.65;8.82;;;;;;;10.72;74.54;101415.28;4984863;28;20130;-76
2022/10/11 06:23:54;;;;;;;14.45;7.75;;;;;;;10.78;74.32;101411.00;4981287;28;20621;-79
2022/10/11 06:26:20;;;;;;;20.15;7.90;;;;;;;10.70;74.98;101398.63;4979020;28;20445;-75
2022/10/11 06:28:45;;;;;;;17.00;8.15;;;;;;;10.23;74.63;101331.41;4986712;28;20050;-76
2022/10/11 06:31:11;;;;;;;20.38;9.40;;;;;;;10.39;74.73;101355.28;4991367;28;20026;-75
2022/10/11 06:33:37;;;;;;;16.58;8.18;;;;;;;10.00;74.60;101257.59;4984923;28;20053;-76
2022/10/11 06:36:09;;;;;;;16.65;8.88;;;;;;;10.96;74.48;101413.03;4994610;28;20061;-77
2022/10/11 06:38:35;;;;;;;23.47;8.33;;;;;;;10.45;74.38;101326.53;4995527;28;20097;-75
2022/10/11 06:41:15;;;;;;;19.13;8.05;;;;;;;10.05;74.62;101271.66;4992420;28;20073;-77
2022/10/11 06:43:40;;;;;;;17.85;7.72;;;;;;;11.01;74.22;101413.09;5002864;28;20046;-77
2022/10/11 06:46:06;;;;;;;16.27;6.78;;;;;;;10.99;75.39;101426.19;5005112;28;20045;-77
2022/10/11 06:48:32;;;;;;;19.50;7.80;;;;;;;10.95;75.35;101413.00;5006266;28;20040;-76
2022/10/11 06:50:58;;;;;;;23.98;7.95;;;;;;;11.13;75.51;101439.53;5006647;28;20120;-75
2022/10/11 06:53:24;;;;;;;15.95;7.68;;;;;;;10.41;75.69;101299.34;5006151;28;20046;-77
2022/10/11 06:55:49;;;;;;;30.23;8.73;;;;;;;10.77;74.72;101337.50;5007699;28;20490;-77
2022/10/11 06:58:15;;;;;;;21.17;7.22;;;;;;;10.68;74.33;101326.88;4987973;28;20148;-75
2022/10/11 07:00:41;;;;;;;14.90;7.65;;;;;;;11.32;74.18;101431.91;5002170;28;20558;-75
2022/10/11 07:03:07;;;;;;;26.30;8.18;;;;;;;10.53;74.52;101299.50;4987946;28;20037;-77
2022/10/11 07:05:33;;;;;;;17.30;8.93;;;;;;;11.32;74.17;101422.28;4998992;28;20045;-76
2022/10/11 07:07:59;;;;;;;13.13;8.32;;;;;;;11.47;74.16;101426.88;5005534;28;20088;-76
2022/10/11 07:10:25;;;;;;;22.98;7.63;;;;;;;10.83;74.37;101310.44;5000361;28;20042;-76
2022/10/11 07:12:51;;;;;;;23.65;10.55;;;;;;;11.11;74.49;101337.94;5005091;28;20049;-75
2022/10/11 07:15:17;;;;;;;12.38;7.47;;;;;;;11.65;73.90;101407.78;5003633;28;20471;-75
2022/10/11 07:17:42;;;;;;;16.27;9.20;;;;;;;11.11;73.84;101299.41;5000914;28;20022;-77
2022/10/11 07:20:08;;;;;;;46.60;10.52;;;;;;;11.32;73.18;101304.03;4985684;28;20061;-75
2022/10/11 07:22:34;;;;;;;15.60;8.65;;;;;;;11.88;73.57;101423.88;5005104;28;20045;-75
2022/10/11 07:24:59;;;;;;;21.02;10.13;;;;;;;11.25;73.66;101303.97;5012904;28;20056;-75
2022/10/11 07:27:25;;;;;;;20.85;9.45;;;;;;;11.46;73.61;101306.81;5006016;28;20026;-75
2022/10/11 07:29:51;;;;;;;23.55;8.73;;;;;;;11.54;72.68;101288.50;5004562;28;20445;-77
2022/10/11 07:32:16;;;;;;;26.85;8.38;;;;;;;12.29;72.55;101407.63;4999426;28;20808;-76
2022/10/11 07:34:42;;;;;;;22.95;9.40;;;;;;;12.49;71.84;101396.38;5014821;28;20408;-78
2022/10/11 07:37:07;;;;;;;17.00;8.85;;;;;;;12.50;72.24;101417.44;4996047;28;20061;-76
2022/10/11 07:39:33;;;;;;;18.40;8.30;;;;;;;12.29;71.28;101325.13;4999464;28;20046;-76
2022/10/11 07:41:58;;;;;;;25.25;7.43;;;;;;;11.82;70.68;101208.13;4967505;28;20045;-78
2022/10/11 07:44:24;;;;;;;18.02;6.40;;;;;;;13.18;71.03;101400.34;4997104;28;20046;-75
2022/10/11 07:46:50;;;;;;;18.83;7.20;;;;;;;13.38;70.44;101405.72;4987734;28;20047;-75
2022/10/11 07:49:15;;;;;;;53.83;7.22;;;;;;;13.51;69.77;101406.69;4983372;28;20465;-76
2022/10/11 07:51:40;;;;;;;21.17;7.07;;;;;;;13.49;69.38;101411.06;5000159;28;20061;-75
2022/10/11 07:54:06;;;;;;;14.52;7.97;;;;;;;13.66;69.64;101403.22;5002934;28;20469;-77
2022/10/11 07:56:32;;;;;;;25.42;8.43;;;;;;;12.93;69.05;101259.69;4992769;28;20061;-76
2022/10/11 07:59:02;;;;;;;12.65;8.07;;;;;;;13.34;69.06;101302.91;4990384;28;20475;-76
2022/10/11 08:01:28;;;;;;;26.75;6.68;;;;;;;12.67;69.00;101165.66;4999407;28;20104;-76
2022/10/11 08:03:55;;;;;;;14.35;6.95;;;;;;;14.24;68.85;101394.53;4983864;28;20042;-75
2022/10/11 08:06:24;;;;;;;16.67;7.85;;;;;;;14.36;68.26;101394.53;5003025;28;20039;-75
2022/10/11 08:08:50;;;;;;;12.30;5.78;;;;;;;13.69;67.92;101272.22;4987068;28;20030;-74
2022/10/11 08:11:24;;;;;;;19.90;5.90;;;;;;;13.87;67.87;101275.75;4979339;28;20867;-75
2022/10/11 08:13:50;;;;;;;40.30;8.43;;;;;;;13.82;67.87;101253.78;4982576;28;20062;-76
2022/10/11 08:16:16;;;;;;;36.83;10.15;;;;;;;14.01;67.34;101255.53;4991112;28;20053;-76
2022/10/11 08:18:42;;;;;;;69.03;12.90;;;;;;;14.23;67.56;101274.84;5002634;28;20038;-76
2022/10/11 08:21:13;;;;;;;29.85;8.82;;;;;;;14.22;67.02;101273.09;4992562;28;20173;-75
2022/10/11 08:23:39;;;;;;;31.80;7.03;;;;;;;14.35;66.80;101269.56;4994920;28;20038;-75
2022/10/11 08:26:05;;;;;;;29.45;7.22;;;;;;;14.42;67.27;101280.09;4990883;28;20053;-75
2022/10/11 08:28:30;;;;;;;16.73;7.30;;;;;;;14.43;66.65;101264.25;4994966;28;20045;-74
2022/10/11 08:30:56;;;;;;;27.35;7.55;;;;;;;15.22;66.41;101369.75;4990448;28;20145;-75
2022/10/11 08:33:23;;;;;;;35.40;8.13;;;;;;;15.34;65.49;101382.94;4991895;28;20030;-76
2022/10/11 08:35:50;;;;;;;12.25;5.25;;;;;;;15.27;65.47;101382.09;4972814;28;20026;-75
2022/10/11 08:38:16;;;;;;;16.13;5.50;;;;;;;14.55;65.32;101250.19;4990320;28;20038;-77
2022/10/11 08:40:56;;;;;;;10.00;5.35;;;;;;;15.33;65.40;101350.31;5001740;28;20068;-77
2022/10/11 08:44:06;;;;;;;18.33;6.68;;;;;;;15.72;65.19;101379.25;5005197;28;20076;-75
2022/10/11 08:46:34;;;;;;;38.65;9.15;;;;;;;15.92;65.12;101379.13;4971433;28;20073;-75
2022/10/11 08:49:01;;;;;;;11.10;4.78;;;;;;;14.88;65.51;101241.25;5012960;28;20045;-75
2022/10/11 08:51:36;;;;;;;30.95;6.97;;;;;;;15.57;65.33;101343.16;5019942;28;20032;-76
2022/10/11 08:54:10;;;;;;;50.33;7.78;;;;;;;16.08;64.87;101374.59;4997986;28;20468;-75
2022/10/11 08:56:38;;;;;;;13.77;5.55;;;;;;;15.74;64.75;101341.31;4986488;28;20046;-74
2022/10/11 08:59:31;;;;;;;9.73;4.97;;;;;;;15.57;65.81;101372.25;5008402;28;20437;-75
2022/10/11 09:02:23;;;;;;;6.93;4.37;;;;;;;15.31;65.26;101254.25;5001367;28;20128;-75
2022/10/11 09:04:53;;;;;;;21.40;6.72;;;;;;;16.38;64.82;101370.84;5026104;28;20057;-77
2022/10/11 09:07:24;;;;;;;16.30;4.75;;;;;;;16.56;64.28;101373.31;5015597;28;20084;-77
2022/10/11 09:10:07;;;;;;;9.73;6.97;;;;;;;15.56;63.89;101240.84;5009594;28;20100;-77
2022/10/11 09:12:35;;;;;;;15.07;5.25;;;;;;;15.70;64.00;101268.13;5008997;28;26302;-77
2022/10/11 09:15:18;;;;;;;13.82;5.72;;;;;;;16.24;64.83;101365.66;4993596;28;20033;-76
2022/10/11 09:18:17;;;;;;;41.03;6.40;;;;;;;16.68;65.10;101373.19;4997755;28;20164;-76
2022/10/11 09:21:09;;;;;;;13.18;4.85;;;;;;;16.22;65.35;101383.31;4994844;28;20046;-77
2022/10/11 09:24:04;;;;;;;7.85;3.35;;;;;;;16.02;65.95;101327.88;5007566;28;20042;-76
2022/10/11 09:27:12;;;;;;;6.57;3.85;;;;;;;16.02;65.00;101278.47;5016550;28;20060;-75
2022/10/11 09:29:49;;;;;;;10.43;4.85;;;;;;;16.52;65.96;101373.38;5010621;28;20073;-76
2022/10/11 09:32:19;;;;;;;10.45;4.53;;;;;;;16.67;65.89;101367.94;5001179;28;20144;-76
2022/10/11 09:34:47;;;;;;;13.40;3.90;;;;;;;16.76;65.11;101349.25;5018295;28;20094;-77
2022/10/11 09:37:43;;;;;;;9.88;4.38;;;;;;;16.58;65.09;101374.19;5017759;28;20095;-77
2022/10/11 09:40:08;;;;;;;11.50;4.35;;;;;;;17.02;64.88;101379.94;5002453;28;20119;-76
2022/10/11 09:42:34;;;;;;;13.55;3.92;;;;;;;16.60;64.75;101266.41;5000618;28;20049;-77
2022/10/11 09:45:12;;;;;;;17.15;4.28;;;;;;;17.09;64.41;101363.06;5015637;28;20461;-75
2022/10/11 09:47:38;;;;;;;6.47;3.58;;;;;;;17.32;64.82;101372.53;5009330;28;20049;-75
2022/10/11 09:50:13;;;;;;;13.48;4.93;;;;;;;17.15;64.51;101352.41;5012736;28;20046;-77
2022/10/11 09:52:52;;;;;;;8.23;4.32;;;;;;;17.23;65.63;101373.53;5005672;28;20531;-77
2022/10/11 09:55:42;;;;;;;11.73;5.40;;;;;;;17.28;64.84;101340.75;4985079;28;20064;-75
2022/10/11 09:58:34;;;;;;;10.40;4.60;;;;;;;17.04;64.20;101370.22;4993117;28;20125;-76
2022/10/11 10:01:10;;;;;;;7.05;3.47;;;;;;;16.85;64.75;101343.91;5006810;28;20042;-73
2022/10/11 10:03:38;;;;;;;13.95;5.90;;;;;;;16.91;66.08;101310.28;4974985;28;20448;-75
2022/10/11 10:06:25;;;;;;;10.80;4.22;;;;;;;16.90;63.49;101342.97;4998336;28;20033;-75
2022/10/11 10:08:50;;;;;;;12.27;4.80;;;;;;;16.60;64.13;101244.31;5013306;28;20579;-77
2022/10/11 10:11:18;;;;;;;6.03;3.47;;;;;;;17.42;64.77;101358.25;5009467;28;20136;-76
2022/10/11 10:13:53;;;;;;;9.15;3.70;;;;;;;16.91;64.78;101262.56;4995862;28;20041;-77
2022/10/11 10:16:31;;;;;;;8.25;4.63;;;;;;;17.48;63.95;101356.41;4987543;28;20054;-76
2022/10/11 10:19:06;;;;;;;12.88;4.03;;;;;;;17.41;65.41;101337.94;5012246;28;20037;-77
2022/10/11 10:21:36;;;;;;;11.20;4.85;;;;;;;17.54;63.99;101338.66;5003201;28;20042;-75
2022/10/11 10:24:08;;;;;;;7.88;3.50;;;;;;;17.71;63.36;101349.91;4991492;28;20040;-77
2022/10/11 10:26:36;;;;;;;6.07;2.20;;;;;;;17.74;62.84;101347.19;5005775;28;20129;-77
2022/10/11 10:29:07;;;;;;;7.82;3.25;;;;;;;17.63;63.25;101341.16;4988484;28;20042;-76
2022/10/11 10:31:48;;;;;;;9.90;4.30;;;;;;;17.74;63.09;101341.88;5005824;28;20143;-75
2022/10/11 10:34:28;;;;;;;5.05;3.45;;;;;;;17.76;63.39;101337.44;4998949;28;20049;-76
2022/10/11 10:37:39;;;;;;;7.25;3.97;;;;;;;17.79;63.45;101315.28;5012175;28;20058;-76
2022/10/11 10:40:13;;;;;;;19.55;5.82;;;;;;;17.77;64.25;101317.06;4955360;28;20342;-76
2022/10/11 10:42:38;;;;;;;11.30;4.50;;;;;;;17.82;63.22;101307.31;5002282;28;20366;-77
2022/10/11 10:45:06;;;;;;;11.38;4.75;;;;;;;17.42;62.56;101237.09;5007032;28;20057;-76
2022/10/11 10:48:37;;;;;;;12.30;5.97;;;;;;;18.01;63.06;101308.75;5006338;28;20074;-75
2022/10/11 10:51:11;;;;;;;7.68;3.70;;;;;;;17.89;64.19;101324.91;4946958;28;20134;-76
2022/10/11 10:53:40;;;;;;;15.85;3.60;;;;;;;16.87;62.30;101137.13;4997535;28;20125;-76
2022/10/11 10:56:14;;;;;;;13.57;3.97;;;;;;;17.90;62.33;101322.19;5007379;28;20046;-76
2022/10/11 10:58:44;;;;;;;8.32;4.93;;;;;;;17.90;63.64;101308.06;5010194;28;20497;-76
2022/10/11 11:01:22;;;;;;;14.82;4.47;;;;;;;17.84;62.88;101298.41;5005003;28;20042;-76
2022/10/11 11:04:08;;;;;;;8.98;4.20;;;;;;;17.96;62.82;101315.03;4994039;28;20561;-76
2022/10/11 11:06:46;;;;;;;13.60;4.03;;;;;;;17.95;62.45;101310.63;5004818;28;20133;-76
2022/10/11 11:09:18;;;;;;;10.10;4.22;;;;;;;17.80;62.94;101309.94;5002118;28;20081;-77
2022/10/11 11:12:07;;;;;;;9.30;3.60;;;;;;;17.83;63.06;101301.97;5001288;28;20049;-75
2022/10/11 11:15:31;;;;;;;18.67;4.85;;;;;;;17.88;64.02;101302.75;5002067;28;20044;-76
2022/10/11 11:18:28;;;;;;;7.97;4.10;;;;;;;17.87;63.73;101293.06;4934934;28;20147;-75
2022/10/11 11:21:13;;;;;;;15.02;5.50;;;;;;;17.44;63.78;101227.34;4947437;28;20161;-75
2022/10/11 11:23:51;;;;;;;8.90;4.35;;;;;;;17.25;64.46;101284.19;4991065;28;20054;-77
2022/10/11 11:26:34;;;;;;;9.07;4.80;;;;;;;17.58;63.46;101272.22;5010486;28;20117;-75
2022/10/11 11:29:22;;;;;;;8.43;3.22;;;;;;;17.35;64.24;101269.94;5001242;28;20173;-76
2022/10/11 11:32:28;;;;;;;14.95;4.32;;;;;;;17.42;64.27;101265.38;5000462;28;20042;-75
2022/10/11 11:35:02;;;;;;;16.10;4.60;;;;;;;17.63;63.30;101251.81;5005106;28;20049;-76
2022/10/11 11:37:35;;;;;;;21.02;4.82;;;;;;;17.00;64.65;101188.22;4998620;28;20141;-77
2022/10/11 11:40:05;;;;;;;14.02;4.22;;;;;;;17.55;64.43;101272.28;5002722;28;20497;-75